Time;durP1;ratioP1;P1;durP2;ratioP2;P2;SDS_P1;SDS_P2;PMS_P1;PMS_P2;Temp;Humidity;BMP_temperature;BMP_pressure;BME280_temperature;BME280_humidity;BME280_pressure;Samples;Min_cycle;Max_cycle;Signal;HPM_P1;HPM_P2
2024/04/04 00:01:47;;;;;;;0.63;0.60;;;14.20;60.30;;;9.79;100.00;95441.66;4966446;28;20069;-53
2024/04/04 00:04:15;;;;;;;5.13;0.80;;;14.10;60.50;;;9.76;100.00;95442.97;4968135;28;20079;-52
2024/04/04 00:06:41;;;;;;;2.50;0.80;;;14.00;60.80;;;9.75;100.00;95432.63;4965882;28;20045;-55
2024/04/04 00:09:07;;;;;;;2.30;0.60;;;13.90;61.00;;;9.72;100.00;95439.25;4968254;28;20109;-57
2024/04/04 00:11:34;;;;;;;1.95;0.75;;;13.90;61.20;;;9.59;100.00;95431.75;4966131;28;20029;-57
2024/04/04 00:13:59;;;;;;;1.52;0.60;;;13.90;61.60;;;9.55;100.00;95436.78;4970047;28;20022;-50
2024/04/04 00:16:25;;;;;;;1.95;0.75;;;13.80;61.80;;;9.55;100.00;95442.09;4967182;28;20042;-52
2024/04/04 00:18:51;;;;;;;0.30;0.30;;;13.80;62.10;;;9.57;100.00;95433.88;4974019;28;20030;-50
2024/04/04 00:21:17;;;;;;;0.60;0.50;;;13.80;62.30;;;9.59;100.00;95437.06;4952892;28;20037;-52
2024/04/04 00:23:43;;;;;;;2.65;0.60;;;13.80;62.40;;;9.60;100.00;95433.38;4968602;28;20030;-56
2024/04/04 00:26:09;;;;;;;2.58;0.70;;;13.80;62.60;;;9.59;100.00;95434.41;4970117;28;20022;-54
2024/04/04 00:28:35;;;;;;;1.45;0.55;;;13.80;62.70;;;9.58;100.00;95430.94;4972678;28;20041;-51
2024/04/04 00:31:01;;;;;;;1.35;0.60;;;13.80;62.70;;;9.55;100.00;95428.81;4969264;28;20022;-56
2024/04/04 00:33:27;;;;;;;1.40;0.50;;;13.80;62.70;;;9.53;100.00;95432.78;4971753;28;20457;-56
2024/04/04 00:35:53;;;;;;;1.23;0.50;;;13.70;62.90;;;9.56;100.00;95437.59;4965997;28;20061;-55
2024/04/04 00:38:19;;;;;;;0.93;0.60;;;13.80;63.00;;;9.56;100.00;95437.59;4970932;28;20034;-51
2024/04/04 00:40:45;;;;;;;0.80;0.50;;;13.70;63.00;;;9.57;100.00;95444.53;4970850;28;20062;-57
2024/04/04 00:43:11;;;;;;;1.40;0.55;;;13.70;62.90;;;9.53;100.00;95438.94;4969903;28;20026;-53
2024/04/04 00:45:38;;;;;;;0.75;0.60;;;13.70;63.00;;;9.55;100.00;95434.13;4968376;28;20023;-53
2024/04/04 00:48:05;;;;;;;1.75;0.60;;;13.70;62.90;;;9.56;100.00;95432.28;4969476;28;20022;-51
2024/04/04 00:50:33;;;;;;;1.05;0.70;;;13.80;62.90;;;9.55;100.00;95428.03;4963237;28;20066;-52
2024/04/04 00:52:59;;;;;;;2.42;0.70;;;13.70;62.90;;;9.55;100.00;95434.13;4968241;28;20061;-55
2024/04/04 00:55:25;;;;;;;1.42;0.50;;;13.80;62.90;;;9.55;100.00;95430.69;4951914;28;20041;-56
2024/04/04 00:57:53;;;;;;;1.17;0.70;;;13.80;62.90;;;9.54;100.00;95432.53;4966917;28;20030;-50
2024/04/04 01:00:19;;;;;;;0.93;0.50;;;13.80;62.90;;;9.58;100.00;95438.13;4965731;28;20018;-51
2024/04/04 01:02:45;;;;;;;1.45;0.63;;;13.80;62.80;;;9.59;100.00;95445.03;4964637;28;20065;-50
2024/04/04 01:05:15;;;;;;;1.98;0.52;;;13.80;62.80;;;9.57;100.00;95436.53;4966232;28;20110;-54
2024/04/04 01:07:42;;;;;;;1.30;0.60;;;13.80;62.80;;;9.58;100.00;95441.59;4963909;28;20041;-52
2024/04/04 01:10:09;;;;;;;4.22;0.63;;;13.80;62.80;;;9.62;100.00;95439.19;4966183;28;20113;-52
2024/04/04 01:12:38;;;;;;;2.83;0.60;;;13.80;62.70;;;9.63;100.00;95441.63;4966283;28;20416;-51
2024/04/04 01:15:08;;;;;;;1.17;0.57;;;13.80;62.60;;;9.66;100.00;95449.06;4966157;28;20022;-53
2024/04/04 01:17:35;;;;;;;1.55;0.50;;;13.90;62.60;;;9.68;100.00;95440.81;4964525;28;20048;-52
2024/04/04 01:20:02;;;;;;;1.48;0.57;;;13.90;62.50;;;9.68;100.00;95438.97;4964320;28;20506;-51
2024/04/04 01:22:27;;;;;;;2.15;0.63;;;13.90;62.40;;;9.71;100.00;95442.94;4968728;28;20120;-52
2024/04/04 01:24:53;;;;;;;1.65;0.50;;;13.90;62.30;;;9.73;100.00;95444.28;4968314;28;20022;-54
2024/04/04 01:27:19;;;;;;;0.70;0.40;;;14.00;62.30;;;9.76;100.00;95442.19;4954130;28;20037;-52
2024/04/04 01:29:45;;;;;;;1.30;0.60;;;14.00;62.30;;;9.77;100.00;95447.22;4966524;28;20030;-55
2024/04/04 01:32:11;;;;;;;1.80;0.60;;;14.00;62.20;;;9.79;100.00;95445.13;4971203;28;20481;-56
2024/04/04 01:34:37;;;;;;;0.55;0.40;;;14.00;62.20;;;9.79;100.00;95444.31;4965763;28;20026;-57
2024/04/04 01:37:03;;;;;;;2.45;0.85;;;14.00;62.30;;;9.78;100.00;95445.34;4967870;28;20057;-57
2024/04/04 01:39:29;;;;;;;0.85;0.50;;;14.00;62.30;;;9.82;100.00;95449.13;4971410;28;20096;-57
2024/04/04 01:41:56;;;;;;;0.73;0.60;;;14.00;62.30;;;9.83;100.00;95453.38;4968567;28;20105;-58
2024/04/04 01:44:23;;;;;;;0.98;0.40;;;14.00;63.10;;;9.80;100.00;95443.25;4968390;28;20501;-53
2024/04/04 01:46:50;;;;;;;2.20;0.47;;;14.00;62.40;;;9.80;100.00;95452.03;4969466;28;20136;-52
2024/04/04 01:49:16;;;;;;;1.23;0.40;;;13.90;62.40;;;9.75;100.00;95452.03;4964161;28;20035;-51
2024/04/04 01:51:44;;;;;;;0.88;0.40;;;14.00;62.40;;;9.75;100.00;95456.56;4968266;28;20042;-51
2024/04/04 01:54:14;;;;;;;0.88;0.52;;;14.00;62.40;;;9.76;100.00;95448.28;4967975;28;20022;-56
2024/04/04 01:56:41;;;;;;;1.50;0.52;;;14.00;62.50;;;9.78;100.00;95442.69;4968406;28;20038;-55
2024/04/04 01:59:07;;;;;;;0.57;0.50;;;13.90;62.40;;;9.76;100.00;95442.19;4969330;28;20026;-53
2024/04/04 02:01:33;;;;;;;1.23;0.50;;;14.00;62.40;;;9.80;100.00;95441.38;4969163;28;20048;-53
2024/04/04 02:03:59;;;;;;;2.63;0.60;;;14.00;62.40;;;9.81;100.00;95436.84;4963299;28;20026;-55
2024/04/04 02:06:25;;;;;;;0.43;0.40;;;13.90;62.30;;;9.78;100.00;95435.53;4966972;28;20543;-54
2024/04/04 02:08:51;;;;;;;1.08;0.50;;;14.00;62.40;;;9.78;100.00;95438.22;4968147;28;20026;-54
2024/04/04 02:11:17;;;;;;;1.50;0.60;;;14.00;62.40;;;9.77;100.00;95441.91;4969089;28;20030;-55
2024/04/04 02:13:43;;;;;;;1.52;0.50;;;14.00;62.30;;;9.76;100.00;95436.88;4968834;28;20381;-53
2024/04/04 02:16:09;;;;;;;0.88;0.40;;;14.00;62.30;;;9.79;100.00;95441.66;4963183;28;20026;-54
2024/04/04 02:18:35;;;;;;;1.30;0.50;;;14.00;62.30;;;9.76;99.69;95440.31;4959920;28;20033;-55
2024/04/04 02:21:04;;;;;;;1.00;0.52;;;14.10;62.20;;;9.77;99.91;95436.59;4967194;28;20037;-52
2024/04/04 02:23:30;;;;;;;0.70;0.40;;;14.00;62.10;;;9.79;99.97;95439.00;4963616;28;20031;-56
2024/04/04 02:25:58;;;;;;;0.80;0.38;;;14.00;62.10;;;9.82;100.00;95439.28;4967345;28;20113;-52
2024/04/04 02:28:24;;;;;;;0.50;0.43;;;14.00;62.00;;;9.82;99.57;95444.59;4966215;28;20025;-56
2024/04/04 02:30:51;;;;;;;1.65;0.40;;;14.10;62.00;;;9.83;99.56;95443.50;4967593;28;20076;-49
2024/04/04 02:33:18;;;;;;;0.65;0.40;;;14.10;61.90;;;9.85;99.66;95448.59;4964553;28;20022;-53
2024/04/04 02:35:58;;;;;;;1.38;0.50;;;14.10;61.80;;;9.82;99.41;95446.47;4964217;28;20088;-50
2024/04/04 02:38:26;;;;;;;0.60;0.40;;;14.10;61.80;;;9.80;98.85;95441.38;4967063;23;20074;-49
2024/04/04 02:40:52;;;;;;;1.30;0.60;;;14.10;61.60;;;9.80;99.47;95444.03;4951021;28;20536;-47
2024/04/04 02:43:18;;;;;;;0.85;0.60;;;14.10;61.60;;;9.80;99.68;95441.38;4951377;28;20031;-48
2024/04/04 02:45:45;;;;;;;1.52;0.70;;;14.10;61.60;;;9.78;100.00;95454.16;4951173;28;20035;-48
2024/04/04 02:48:12;;;;;;;0.90;0.47;;;14.10;61.60;;;9.78;100.00;95456.81;4944148;28;20029;-54
2024/04/04 02:50:38;;;;;;;0.95;0.40;;;14.10;61.60;;;9.79;100.00;95453.09;4934531;28;20027;-49
2024/04/04 02:53:05;;;;;;;0.30;0.30;;;14.10;61.60;;;9.78;100.00;95448.03;4932345;29;20023;-47
2024/04/04 02:55:33;;;;;;;0.95;0.47;;;14.10;61.60;;;9.77;99.37;95441.91;4930986;29;20050;-49
2024/04/04 02:57:59;;;;;;;1.95;0.70;;;14.20;61.60;;;9.78;99.58;95445.34;4931903;29;20536;-52
2024/04/04 03:00:25;;;;;;;1.67;0.45;;;14.20;61.60;;;9.74;99.78;95442.44;4931418;29;20478;-50
2024/04/04 03:02:51;;;;;;;0.57;0.40;;;14.10;61.50;;;9.76;99.94;95436.88;4933480;28;20027;-51
2024/04/04 03:05:17;;;;;;;0.95;0.50;;;14.10;61.40;;;9.77;100.00;95447.22;4932228;29;20330;-46
2024/04/04 03:07:43;;;;;;;1.38;0.50;;;14.10;61.40;;;9.74;100.00;95442.44;4930128;29;20035;-46
2024/04/04 03:10:09;;;;;;;2.10;0.52;;;14.10;61.40;;;9.74;100.00;95439.78;4932823;29;20482;-46
2024/04/04 03:12:35;;;;;;;1.70;0.40;;;14.10;61.40;;;9.69;100.00;95440.56;4930971;29;20023;-47
2024/04/04 03:15:00;;;;;;;1.65;0.82;;;14.10;61.30;;;9.70;100.00;95422.75;4933146;29;20033;-49
2024/04/04 03:17:28;;;;;;;1.45;0.65;;;14.10;61.40;;;9.68;100.00;95420.38;4931597;29;20035;-47
2024/04/04 03:19:54;;;;;;;1.77;0.50;;;14.10;61.30;;;9.67;99.91;95420.59;4929027;29;20023;-48
2024/04/04 03:22:21;;;;;;;1.75;0.60;;;14.10;61.30;;;9.65;100.00;95415.56;4931837;29;20038;-50
2024/04/04 03:24:47;;;;;;;1.08;0.50;;;14.10;61.30;;;9.67;100.00;95423.28;4930953;29;20059;-47
2024/04/04 03:27:13;;;;;;;0.80;0.50;;;14.10;61.30;;;9.68;100.00;95414.22;4931649;29;20118;-51
2024/04/04 03:29:39;;;;;;;0.52;0.38;;;14.10;61.30;;;9.63;99.47;95412.34;4945739;28;20046;-52
2024/04/04 03:32:05;;;;;;;0.65;0.40;;;14.10;61.30;;;9.64;99.67;95413.94;4932016;29;20078;-46
2024/04/04 03:34:31;;;;;;;0.80;0.40;;;14.00;61.20;;;9.61;100.00;95417.13;4929645;29;20035;-52
2024/04/04 03:36:57;;;;;;;3.25;0.80;;;14.10;61.30;;;9.57;100.00;95416.06;4930148;29;20524;-47
2024/04/04 03:39:23;;;;;;;2.38;0.50;;;14.00;61.30;;;9.54;100.00;95421.91;4932067;29;20474;-50
2024/04/04 03:41:48;;;;;;;2.90;0.80;;;14.00;61.40;;;9.55;100.00;95423.50;4930875;29;20478;-51
2024/04/04 03:44:14;;;;;;;1.73;0.63;;;14.00;61.40;;;9.54;100.00;95415.78;4932422;29;20512;-49
2024/04/04 03:46:40;;;;;;;3.00;0.70;;;14.00;61.40;;;9.57;100.00;95421.38;4931507;29;20532;-52
2024/04/04 03:49:06;;;;;;;0.73;0.50;;;14.00;61.40;;;9.55;99.72;95414.72;4931127;29;20114;-52
2024/04/04 03:51:32;;;;;;;1.38;0.55;;;14.00;61.40;;;9.58;99.87;95416.84;4930540;29;20111;-50
2024/04/04 03:53:58;;;;;;;1.10;0.70;;;14.00;61.30;;;9.61;99.51;95416.34;4930914;29;20023;-48
2024/04/04 03:56:23;;;;;;;2.08;0.57;;;14.00;61.30;;;9.54;99.78;95411.28;4931514;29;20042;-49
2024/04/04 03:58:49;;;;;;;3.65;0.63;;;14.00;61.30;;;9.55;99.77;95420.84;4932539;29;20082;-48
2024/04/04 04:01:15;;;;;;;0.70;0.60;;;14.00;61.40;;;9.56;100.00;95418.97;4934713;29;20031;-47
2024/04/04 04:03:41;;;;;;;1.80;0.80;;;13.90;61.40;;;9.54;100.00;95413.94;4935437;29;20042;-50
2024/04/04 04:06:07;;;;;;;2.75;0.88;;;13.90;61.40;;;9.56;99.00;95418.97;4935247;28;20086;-48
2024/04/04 04:08:33;;;;;;;1.77;0.50;;;13.90;61.40;;;9.61;98.19;95417.13;4935408;29;20505;-51
2024/04/04 04:10:58;;;;;;;3.42;0.50;;;13.90;61.40;;;9.64;98.18;95415.81;4935486;29;21322;-51
2024/04/04 04:13:24;;;;;;;3.25;0.50;;;14.00;61.40;;;9.71;97.18;95419.84;4932634;29;20027;-47
2024/04/04 04:15:58;;;;;;;2.25;0.60;;;14.00;61.30;;;9.73;96.28;95415.03;4932913;29;20061;-48
2024/04/04 04:18:25;;;;;;;1.13;0.60;;;14.00;61.20;;;9.77;96.57;95417.97;4934032;29;20058;-47
2024/04/04 04:23:35;;;;;;;1.10;0.40;;;14.00;60.90;;;9.64;98.73;95416.59;4935078;29;20147;-55
2024/04/04 04:26:01;;;;;;;2.88;0.70;;;14.00;60.80;;;9.47;98.08;95408.06;4934073;29;20098;-52
2024/04/04 04:28:27;;;;;;;3.05;0.70;;;14.00;60.90;;;9.45;97.71;95404.84;4935698;29;20039;-49
2024/04/04 04:30:53;;;;;;;1.30;0.50;;;13.90;60.70;;;9.38;97.99;95410.44;4932652;29;20022;-54
2024/04/04 04:33:19;;;;;;;2.92;0.60;;;13.90;60.70;;;9.29;98.28;95401.34;4941378;28;20035;-51
2024/04/04 04:35:45;;;;;;;1.42;0.40;;;13.80;60.70;;;9.22;99.10;95401.59;4933485;29;20073;-48
2024/04/04 04:38:11;;;;;;;5.18;0.80;;;13.70;60.70;;;9.14;99.23;95395.97;4935981;28;20141;-50
2024/04/04 04:40:43;;;;;;;1.13;0.60;;;13.60;60.70;;;9.00;100.00;95396.44;4934906;29;20486;-50
2024/04/04 04:43:10;;;;;;;2.03;0.57;;;13.50;60.80;;;8.91;100.00;95402.53;4935000;28;20117;-47
2024/04/04 04:45:36;;;;;;;2.28;0.52;;;13.40;60.80;;;8.84;100.00;95399.28;4934668;28;20030;-49
2024/04/04 04:48:02;;;;;;;1.92;0.50;;;13.40;60.80;;;8.75;100.00;95399.78;4934059;29;20039;-48
2024/04/04 04:50:30;;;;;;;1.08;0.57;;;13.30;60.90;;;8.65;100.00;95393.59;4932951;28;20106;-47
2024/04/04 04:52:55;;;;;;;1.67;0.63;;;13.20;61.00;;;8.53;100.00;95396.47;4934527;29;20027;-49
2024/04/04 04:55:21;;;;;;;1.98;0.68;;;13.10;61.00;;;8.49;100.00;95390.03;4934338;28;20094;-51
2024/04/04 04:57:48;;;;;;;2.28;0.75;;;13.10;61.20;;;8.47;100.00;95400.94;4938173;28;20042;-51
2024/04/04 05:00:14;;;;;;;4.05;0.60;;;13.00;61.40;;;8.42;100.00;95400.09;4933610;29;20401;-50
2024/04/04 05:02:40;;;;;;;1.88;0.40;;;12.90;61.50;;;8.44;100.00;95403.28;4934506;29;20027;-55
2024/04/04 05:05:15;;;;;;;1.65;0.50;;;12.90;61.70;;;8.41;100.00;95407.25;4934425;28;20031;-47
2024/04/04 05:07:42;;;;;;;1.33;0.50;;;12.90;61.90;;;8.40;100.00;95396.88;4931585;29;20027;-50
2024/04/04 05:10:08;;;;;;;1.13;0.47;;;12.90;61.80;;;8.33;100.00;95405.81;4933879;29;20082;-48
2024/04/04 05:12:34;;;;;;;1.88;0.55;;;12.90;61.80;;;8.31;100.00;95396.53;4933072;29;20414;-51
2024/04/04 05:15:00;;;;;;;1.02;0.40;;;12.90;62.60;;;8.30;100.00;95398.41;4948598;28;20540;-47
2024/04/04 05:17:26;;;;;;;0.95;0.40;;;12.80;61.90;;;8.30;100.00;95398.41;4934105;29;20030;-51
2024/04/04 05:19:52;;;;;;;1.48;0.40;;;12.80;62.10;;;8.28;100.00;95395.19;4933213;29;20030;-49
2024/04/04 05:22:18;;;;;;;2.67;0.40;;;12.80;62.10;;;8.24;100.00;95403.91;4934356;29;20026;-47
2024/04/04 05:24:44;;;;;;;1.30;0.68;;;12.80;62.10;;;8.25;100.00;95395.69;4932733;29;20493;-48
2024/04/04 05:27:10;;;;;;;0.88;0.50;;;12.80;62.30;;;8.34;100.00;95398.69;4933967;29;20486;-53
2024/04/04 05:29:36;;;;;;;1.48;0.50;;;12.90;62.50;;;8.41;100.00;95396.63;4933300;28;20031;-54
2024/04/04 05:32:02;;;;;;;0.63;0.43;;;12.90;62.40;;;8.50;100.00;95402.28;4933876;29;20070;-47
2024/04/04 05:34:28;;;;;;;0.85;0.60;;;13.00;62.40;;;8.56;100.00;95402.06;4933452;29;20038;-47
2024/04/04 05:36:54;;;;;;;1.00;0.52;;;13.10;62.40;;;8.71;100.00;95405.84;4932677;28;20027;-47
2024/04/04 05:39:20;;;;;;;1.10;0.60;;;13.20;62.40;;;8.84;100.00;95402.75;4933906;29;20058;-49
2024/04/04 05:41:51;;;;;;;1.58;0.70;;;13.30;62.30;;;8.98;100.00;95413.72;4932596;29;20019;-50
2024/04/04 05:44:17;;;;;;;1.15;0.63;;;13.50;62.20;;;9.09;100.00;95417.19;4934029;28;20092;-47
2024/04/04 05:46:43;;;;;;;1.08;0.63;;;13.60;62.00;;;9.23;99.33;95411.16;4933691;29;20037;-51
2024/04/04 05:49:09;;;;;;;1.48;0.60;;;13.80;61.80;;;9.38;98.45;95412.28;4933156;28;20141;-46
2024/04/04 05:51:35;;;;;;;2.05;0.50;;;13.90;61.50;;;9.47;97.81;95416.03;4935490;28;20134;-47
2024/04/04 05:54:01;;;;;;;0.73;0.47;;;14.00;61.30;;;9.59;97.25;95415.78;4932336;29;20034;-47
2024/04/04 05:56:27;;;;;;;1.65;0.50;;;14.20;61.10;;;9.85;95.44;95414.00;4933011;28;20162;-47
2024/04/04 05:58:52;;;;;;;1.60;0.60;;;14.50;60.80;;;10.12;93.49;95416.41;4933449;28;20494;-47
2024/04/04 06:01:18;;;;;;;3.83;0.60;;;14.80;60.40;;;10.42;92.76;95416.47;4947329;28;20031;-49
2024/04/04 06:03:44;;;;;;;1.83;0.50;;;15.10;60.10;;;10.56;90.99;95410.59;4933176;28;20042;-54
2024/04/04 06:06:10;;;;;;;1.15;0.50;;;15.30;59.80;;;10.62;89.87;95407.66;4931913;29;20491;-52
2024/04/04 06:08:38;;;;;;;1.10;0.65;;;15.40;59.70;;;10.69;88.00;95407.38;4933087;29;20027;-48
2024/04/04 06:11:04;;;;;;;0.40;0.40;;;15.40;59.20;;;10.72;87.83;95414.84;4933199;29;20111;-47
2024/04/04 06:13:30;;;;;;;1.65;0.47;;;15.50;59.10;;;10.76;87.62;95415.91;4934320;28;20031;-47
2024/04/04 06:16:01;;;;;;;1.52;0.60;;;15.50;58.80;;;10.74;87.72;95422.56;4947510;28;20069;-47
2024/04/04 06:18:28;;;;;;;1.65;0.55;;;15.40;58.70;;;10.70;88.28;95416.16;4932077;29;20508;-47
2024/04/04 06:20:55;;;;;;;1.00;0.63;;;15.40;58.50;;;10.61;87.23;95423.91;4933081;29;20047;-47
2024/04/04 06:23:21;;;;;;;4.07;0.70;;;15.40;58.30;;;10.63;87.95;95411.13;4932780;29;20026;-50
2024/04/04 06:25:47;;;;;;;1.50;0.47;;;15.40;58.30;;;10.61;89.33;95408.72;4931806;29;20042;-48
2024/04/04 06:28:12;;;;;;;0.60;0.50;;;15.40;58.30;;;10.56;89.41;95403.41;4932982;29;20054;-47
2024/04/04 06:30:38;;;;;;;3.53;0.60;;;15.40;58.20;;;10.57;89.81;95417.53;4932843;28;20031;-46
2024/04/04 06:33:06;;;;;;;1.48;0.60;;;15.30;58.20;;;10.48;89.79;95419.13;4932748;29;20026;-47
2024/04/04 06:35:32;;;;;;;3.45;0.80;;;15.30;58.20;;;10.44;88.83;95421.53;4932320;29;20022;-48
2024/04/04 06:37:57;;;;;;;2.10;1.00;;;15.30;58.10;;;10.47;87.58;95417.53;4931338;29;20047;-51
2024/04/04 06:40:23;;;;;;;3.80;1.10;;;15.30;58.10;;;10.51;86.42;95423.91;4932674;29;20486;-50
2024/04/04 06:42:49;;;;;;;2.30;1.00;;;15.20;57.90;;;10.50;84.77;95422.31;4937841;28;20089;-50
2024/04/04 06:45:15;;;;;;;2.13;0.90;;;15.30;57.80;;;10.57;84.82;95415.66;4932212;29;20050;-50
2024/04/04 06:47:55;;;;;;;3.20;0.90;;;15.20;57.70;;;10.57;84.73;95418.31;4931585;29;20038;-52
2024/04/04 06:50:21;;;;;;;3.85;1.00;;;15.20;57.60;;;10.65;84.44;95411.63;4929192;29;20033;-49
2024/04/04 06:52:46;;;;;;;2.78;1.08;;;15.30;57.50;;;10.67;83.54;95408.72;4932181;29;20034;-47
2024/04/04 06:55:12;;;;;;;3.38;1.02;;;15.30;57.40;;;10.73;82.87;95405.78;4931382;29;20027;-48
2024/04/04 06:57:38;;;;;;;1.58;0.80;;;15.30;57.20;;;10.77;82.03;95420.16;4930487;29;20125;-47
2024/04/04 07:00:07;;;;;;;2.40;0.90;;;15.40;57.20;;;10.78;81.83;95411.09;4931539;28;20030;-47
2024/04/04 07:02:33;;;;;;;1.60;0.60;;;15.40;57.00;;;10.82;81.44;95414.03;4933422;28;20031;-47
2024/04/04 07:04:59;;;;;;;2.17;0.60;;;15.50;56.80;;;10.88;80.60;95421.72;4946421;28;20027;-48
2024/04/04 07:07:24;;;;;;;3.05;0.70;;;15.60;56.70;;;10.96;80.32;95409.72;4931596;29;20085;-49
2024/04/04 07:09:50;;;;;;;2.28;0.60;;;15.70;56.60;;;11.02;81.67;95424.63;4932350;29;20031;-47
2024/04/04 07:12:16;;;;;;;1.27;0.63;;;15.80;56.50;;;11.08;82.43;95420.88;4929174;29;20031;-47
2024/04/04 07:14:42;;;;;;;3.40;0.80;;;15.80;56.40;;;11.11;83.49;95423.00;4931678;29;20077;-47
2024/04/04 07:17:08;;;;;;;1.98;0.60;;;15.90;56.40;;;11.14;83.95;95418.19;4932308;29;20038;-49
2024/04/04 07:19:34;;;;;;;1.30;0.80;;;16.00;56.30;;;11.13;86.37;95414.75;4929774;29;20027;-49
2024/04/04 07:22:00;;;;;;;1.13;0.60;;;16.10;56.20;;;11.12;83.24;95415.78;4930376;29;20050;-49
2024/04/04 07:24:25;;;;;;;2.28;0.73;;;16.20;56.10;;;11.19;83.84;95410.16;4928935;29;20078;-47
2024/04/04 07:26:51;;;;;;;2.42;1.05;;;16.30;55.90;;;11.34;84.93;95410.13;4930468;29;20105;-47
2024/04/04 07:29:17;;;;;;;1.55;0.60;;;16.40;55.70;;;11.46;83.99;95407.13;4932229;29;20030;-47
2024/04/04 07:31:43;;;;;;;3.20;1.15;;;16.60;55.60;;;11.54;84.91;95418.03;4931217;29;20489;-47
2024/04/04 07:34:09;;;;;;;1.10;0.73;;;16.80;55.50;;;11.67;82.09;95408.63;4934885;28;20443;-51
2024/04/04 07:36:35;;;;;;;5.35;1.40;;;17.10;55.30;;;11.95;80.85;95404.50;4937338;28;20200;-48
2024/04/04 07:39:01;;;;;;;1.85;1.00;;;17.50;54.90;;;12.23;78.41;95394.94;4938470;28;20126;-48
2024/04/04 07:41:27;;;;;;;4.28;1.00;;;17.90;54.40;;;12.45;78.39;95399.84;4939043;28;20031;-49
2024/04/04 07:43:53;;;;;;;4.00;1.00;;;18.20;54.00;;;12.73;78.02;95400.13;4938136;28;20485;-52
2024/04/04 07:46:19;;;;;;;2.50;1.00;;;18.50;53.80;;;12.89;75.92;95398.91;4937972;29;20070;-48
2024/04/04 07:48:45;;;;;;;2.78;1.05;;;18.70;53.30;;;13.01;73.82;95392.38;4937144;28;20439;-48
2024/04/04 07:51:13;;;;;;;1.60;0.90;;;18.90;52.80;;;13.05;72.16;95399.53;4939043;28;20042;-55
2024/04/04 07:53:40;;;;;;;2.55;0.80;;;19.00;52.10;;;13.34;72.74;95409.41;4952355;28;20069;-50
2024/04/04 07:56:07;;;;;;;2.08;1.00;;;19.20;51.80;;;13.53;71.67;95404.88;4936576;28;20342;-60
2024/04/04 07:58:33;;;;;;;1.48;0.80;;;19.40;51.40;;;13.72;69.09;95399.53;4936535;28;20046;-48
2024/04/04 08:00:59;;;;;;;2.85;1.00;;;19.70;51.00;;;14.00;68.08;95403.16;4936230;28;20030;-50
2024/04/04 08:03:27;;;;;;;0.75;0.70;;;19.90;50.60;;;14.14;67.64;95405.94;4936897;28;20113;-50
2024/04/04 08:05:55;;;;;;;1.55;0.70;;;20.10;50.10;;;14.25;65.58;95407.34;4935234;28;20482;-49
2024/04/04 08:08:21;;;;;;;1.83;0.70;;;20.40;49.40;;;14.41;64.87;95407.09;4938635;28;20034;-47
2024/04/04 08:10:50;;;;;;;1.38;0.65;;;20.50;49.00;;;14.44;64.16;95401.16;4937509;28;20585;-51
2024/04/04 08:13:16;;;;;;;1.92;0.70;;;20.60;48.30;;;14.45;63.96;95406.25;4938068;28;20034;-47
2024/04/04 08:15:42;;;;;;;2.70;0.80;;;20.70;48.00;;;14.54;64.36;95404.53;4937305;28;20027;-48
2024/04/04 08:18:08;;;;;;;2.10;0.80;;;20.70;47.80;;;14.67;62.72;95408.31;4936310;28;20045;-51
2024/04/04 08:20:34;;;;;;;3.38;0.70;;;20.70;47.50;;;14.81;64.34;95409.13;4937001;28;20030;-47
2024/04/04 08:23:00;;;;;;;1.83;0.65;;;20.80;47.60;;;14.78;63.73;95417.75;4952110;28;20632;-49
2024/04/04 08:25:28;;;;;;;1.80;0.70;;;20.80;47.40;;;14.79;63.63;95413.19;4936631;28;20026;-48
2024/04/04 08:27:54;;;;;;;3.38;0.75;;;20.80;47.10;;;14.82;62.36;95415.28;4937720;28;20126;-50
2024/04/04 08:30:20;;;;;;;1.20;0.65;;;20.80;46.90;;;14.82;62.89;95415.28;4940036;28;20072;-48
2024/04/04 08:32:46;;;;;;;2.20;0.90;;;20.90;46.80;;;14.76;62.71;95411.91;4937640;28;20662;-48
2024/04/04 08:35:13;;;;;;;0.70;0.60;;;20.90;46.60;;;14.85;65.04;95403.97;4937604;28;20489;-45
2024/04/04 08:37:39;;;;;;;2.50;0.77;;;20.90;46.60;;;14.88;64.42;95403.38;4936627;28;20501;-52
2024/04/04 08:40:06;;;;;;;1.55;0.80;;;21.00;46.50;;;14.83;62.69;95406.16;4937810;28;20041;-48
2024/04/04 08:42:32;;;;;;;4.63;1.00;;;21.10;46.10;;;14.94;62.92;95393.38;4935556;28;20084;-48
2024/04/04 08:44:58;;;;;;;2.47;1.20;;;21.20;46.10;;;15.09;63.20;95392.28;4937167;28;20110;-47
2024/04/04 08:47:26;;;;;;;1.10;1.00;;;21.30;46.00;;;15.27;61.58;95376.09;4934623;29;20034;-52
2024/04/04 08:49:52;;;;;;;3.47;1.30;;;21.70;45.70;;;15.60;60.08;95378.63;4933966;29;20069;-49
2024/04/04 08:52:19;;;;;;;2.85;1.23;;;22.20;44.90;;;15.99;58.49;95379.19;4934880;29;20031;-46
2024/04/04 08:54:45;;;;;;;2.35;1.00;;;22.70;44.40;;;16.22;60.37;95383.47;4933251;28;20162;-47
2024/04/04 08:57:11;;;;;;;2.42;1.90;;;23.10;43.90;;;16.50;55.84;95381.44;4934578;29;20110;-48
2024/04/04 08:59:37;;;;;;;1.67;1.23;;;23.20;43.20;;;16.53;56.30;95377.38;4949814;23;20389;-54
2024/04/04 09:02:04;;;;;;;2.15;1.00;;;23.40;42.60;;;16.56;55.72;95376.75;4967383;28;20046;-48
2024/04/04 09:04:31;;;;;;;3.13;0.95;;;23.40;41.90;;;16.47;54.79;95374.00;4972316;28;20144;-51
2024/04/04 09:06:58;;;;;;;2.05;1.10;;;23.40;41.40;;;16.43;55.43;95375.72;4965881;28;20392;-48
2024/04/04 09:09:24;;;;;;;1.23;1.10;;;23.30;41.20;;;16.45;55.82;95372.72;4966760;28;20492;-48
2024/04/04 09:11:51;;;;;;;2.50;0.90;;;23.30;41.10;;;16.51;55.46;95380.34;4946460;28;20054;-52
2024/04/04 09:14:17;;;;;;;1.25;0.77;;;23.20;41.00;;;16.58;56.42;95372.66;4947789;28;20078;-55
2024/04/04 09:16:46;;;;;;;3.97;1.00;;;23.20;41.30;;;16.56;55.42;95380.22;4948393;28;20035;-57
2024/04/04 09:19:18;;;;;;;42.10;31.98;;;23.10;41.20;;;16.72;56.21;95375.25;4952310;28;20053;-54
2024/04/04 09:21:45;;;;;;;;;;;23.10;41.40;;;16.75;54.34;95382.75;4951129;28;20041;-56
2024/04/04 09:24:16;;;;;;;2.15;1.40;;;23.10;41.90;;;16.66;53.86;95374.59;4946576;28;19952;-56
2024/04/04 09:26:44;;;;;;;2.45;1.17;;;23.30;41.10;;;16.78;56.58;95373.25;4949103;28;20089;-57
2024/04/04 09:29:11;;;;;;;1.60;1.08;;;23.40;41.20;;;16.43;53.58;95373.81;4953199;28;20041;-54
2024/04/04 09:31:43;;;;;;;3.17;1.50;;;23.60;40.30;;;16.58;53.90;95366.50;4947159;28;20023;-50
2024/04/04 09:34:10;;;;;;;3.13;1.23;;;23.60;40.10;;;16.46;54.88;95367.03;4949017;28;20023;-54
2024/04/04 09:36:39;;;;;;;2.38;1.42;;;23.60;40.00;;;16.54;54.27;95368.19;4949515;28;20034;-52
2024/04/04 09:39:12;;;;;;;2.97;1.60;;;23.50;39.90;;;16.76;54.78;95380.84;4949969;28;20362;-53
2024/04/04 09:41:39;;;;;;;1.83;1.08;;;23.50;40.00;;;17.02;54.31;95372.91;4935973;28;20029;-56
2024/04/04 09:44:06;;;;;;;3.03;1.02;;;23.50;40.10;;;17.04;54.27;95378.75;4952854;28;20030;-55
2024/04/04 09:46:39;;;;;;;4.00;1.20;;;23.80;40.40;;;17.11;53.45;95373.75;4952414;28;20022;-53
2024/04/04 09:49:07;;;;;;;1.95;1.10;;;24.00;39.70;;;17.22;53.33;95388.50;4946834;28;20088;-50
2024/04/04 09:51:36;;;;;;;1.80;1.20;;;24.20;39.10;;;17.42;51.89;95381.75;4952798;28;20030;-53
2024/04/04 09:54:04;;;;;;;2.42;1.30;;;24.60;38.60;;;17.46;50.15;95376.53;4944952;28;20030;-55
2024/04/04 09:56:32;;;;;;;1.65;0.90;;;24.90;38.20;;;17.43;51.30;95388.72;4948139;28;20165;-51
2024/04/04 09:58:58;;;;;;;1.45;1.00;;;24.90;37.50;;;17.46;51.89;95381.94;4952057;28;20117;-55
2024/04/04 10:01:26;;;;;;;1.92;1.00;;;24.90;38.00;;;17.33;52.12;95389.03;4950474;28;20050;-50
2024/04/04 10:03:59;;;;;;;2.78;1.10;;;24.90;37.10;;;17.34;51.33;95383.31;4952182;28;20022;-54
2024/04/04 10:06:44;;;;;;;3.90;1.10;;;24.90;36.90;;;17.39;52.54;95392.34;4941823;28;20034;-50
2024/04/04 10:09:23;;;;;;;2.80;0.93;;;24.90;36.80;;;17.66;51.10;95394.00;4948380;28;20033;-52
2024/04/04 10:11:51;;;;;;;1.92;1.30;;;24.90;37.20;;;17.80;51.33;95392.81;4950388;28;20065;-52
2024/04/04 10:14:22;;;;;;;3.88;1.02;;;25.00;37.40;;;17.76;51.81;95396.41;4942155;28;20118;-53
2024/04/04 10:16:53;;;;;;;1.75;0.90;;;25.00;37.30;;;17.70;52.72;95398.44;4948425;28;20089;-49
2024/04/04 10:19:32;;;;;;;3.85;1.27;;;24.90;37.30;;;17.72;52.13;95400.84;4955347;28;20023;-52
2024/04/04 10:21:59;;;;;;;2.58;1.30;;;24.90;38.10;;;17.80;50.10;95395.50;4935226;28;20157;-51